sensor_id;sensor_type;location;lat;lon;timestamp;temperature;humidity
44047;DHT22;29713;-33.888;151.150;2023-07-20T00:01:34;11.20;99.90
44047;DHT22;29713;-33.888;151.150;2023-07-20T00:04:01;11.30;99.90
44047;DHT22;29713;-33.888;151.150;2023-07-20T00:06:28;11.50;99.90
44047;DHT22;29713;-33.888;151.150;2023-07-20T00:08:56;11.70;99.90
44047;DHT22;29713;-33.888;151.150;2023-07-20T00:11:27;11.80;99.90
44047;DHT22;29713;-33.888;151.150;2023-07-20T00:13:54;11.80;99.90
44047;DHT22;29713;-33.888;151.150;2023-07-20T00:16:21;12.00;99.90
44047;DHT22;29713;-33.888;151.150;2023-07-20T00:18:49;12.20;99.90
44047;DHT22;29713;-33.888;151.150;2023-07-20T00:21:16;12.30;99.90
44047;DHT22;29713;-33.888;151.150;2023-07-20T00:23:43;12.40;99.90
44047;DHT22;29713;-33.888;151.150;2023-07-20T00:26:11;12.60;99.90
44047;DHT22;29713;-33.888;151.150;2023-07-20T00:28:38;12.70;99.90
44047;DHT22;29713;-33.888;151.150;2023-07-20T00:31:06;12.90;99.90
44047;DHT22;29713;-33.888;151.150;2023-07-20T00:33:33;13.00;99.90
44047;DHT22;29713;-33.888;151.150;2023-07-20T00:36:00;13.10;99.90
44047;DHT22;29713;-33.888;151.150;2023-07-20T00:38:28;13.10;99.90
44047;DHT22;29713;-33.888;151.150;2023-07-20T00:40:56;13.20;99.90
44047;DHT22;29713;-33.888;151.150;2023-07-20T00:43:23;13.40;99.90
44047;DHT22;29713;-33.888;151.150;2023-07-20T00:45:50;13.50;99.90
44047;DHT22;29713;-33.888;151.150;2023-07-20T00:48:18;13.70;99.90
44047;DHT22;29713;-33.888;151.150;2023-07-20T00:50:46;13.90;99.90
44047;DHT22;29713;-33.888;151.150;2023-07-20T00:53:15;14.00;99.90
44047;DHT22;29713;-33.888;151.150;2023-07-20T00:55:42;14.20;99.90
44047;DHT22;29713;-33.888;151.150;2023-07-20T00:58:13;14.20;99.90
44047;DHT22;29713;-33.888;151.150;2023-07-20T01:00:41;14.40;99.90
44047;DHT22;29713;-33.888;151.150;2023-07-20T01:03:08;14.60;99.90
44047;DHT22;29713;-33.888;151.150;2023-07-20T01:06:01;14.90;99.90
44047;DHT22;29713;-33.888;151.150;2023-07-20T01:14:17;15.90;99.90
44047;DHT22;29713;-33.888;151.150;2023-07-20T01:16:45;16.00;99.90
44047;DHT22;29713;-33.888;151.150;2023-07-20T01:19:14;16.20;99.90
44047;DHT22;29713;-33.888;151.150;2023-07-20T01:29:48;17.00;99.90
44047;DHT22;29713;-33.888;151.150;2023-07-20T01:32:22;17.00;99.90
44047;DHT22;29713;-33.888;151.150;2023-07-20T01:34:53;17.30;99.90
44047;DHT22;29713;-33.888;151.150;2023-07-20T01:37:22;17.30;99.90
44047;DHT22;29713;-33.888;151.150;2023-07-20T01:39:54;17.60;99.90
44047;DHT22;29713;-33.888;151.150;2023-07-20T01:42:22;17.90;99.90
44047;DHT22;29713;-33.888;151.150;2023-07-20T01:44:52;18.30;99.90
44047;DHT22;29713;-33.888;151.150;2023-07-20T01:47:20;18.60;99.90
44047;DHT22;29713;-33.888;151.150;2023-07-20T01:49:47;18.70;99.90
44047;DHT22;29713;-33.888;151.150;2023-07-20T01:52:14;18.80;99.90
44047;DHT22;29713;-33.888;151.150;2023-07-20T01:54:42;18.90;98.80
44047;DHT22;29713;-33.888;151.150;2023-07-20T01:57:09;19.00;98.10
44047;DHT22;29713;-33.888;151.150;2023-07-20T01:59:36;19.20;97.00
44047;DHT22;29713;-33.888;151.150;2023-07-20T02:02:04;19.30;95.60
44047;DHT22;29713;-33.888;151.150;2023-07-20T02:04:31;19.70;94.80
44047;DHT22;29713;-33.888;151.150;2023-07-20T02:06:59;19.90;93.20
44047;DHT22;29713;-33.888;151.150;2023-07-20T02:09:27;19.80;92.40
44047;DHT22;29713;-33.888;151.150;2023-07-20T02:11:54;19.80;91.80
44047;DHT22;29713;-33.888;151.150;2023-07-20T02:14:21;19.80;91.30
44047;DHT22;29713;-33.888;151.150;2023-07-20T02:16:51;20.20;90.90
44047;DHT22;29713;-33.888;151.150;2023-07-20T02:19:21;20.30;90.30
44047;DHT22;29713;-33.888;151.150;2023-07-20T02:21:48;20.60;90.40
44047;DHT22;29713;-33.888;151.150;2023-07-20T02:24:16;20.80;89.90
44047;DHT22;29713;-33.888;151.150;2023-07-20T02:26:43;21.10;89.60
44047;DHT22;29713;-33.888;151.150;2023-07-20T02:29:10;21.20;88.30
44047;DHT22;29713;-33.888;151.150;2023-07-20T02:31:40;21.30;89.70
44047;DHT22;29713;-33.888;151.150;2023-07-20T02:34:09;21.40;87.10
44047;DHT22;29713;-33.888;151.150;2023-07-20T02:36:36;21.60;85.20
44047;DHT22;29713;-33.888;151.150;2023-07-20T02:39:04;21.40;83.00
44047;DHT22;29713;-33.888;151.150;2023-07-20T02:41:32;21.40;83.50
44047;DHT22;29713;-33.888;151.150;2023-07-20T02:44:00;21.60;83.20
44047;DHT22;29713;-33.888;151.150;2023-07-20T02:46:28;21.50;81.60
44047;DHT22;29713;-33.888;151.150;2023-07-20T02:48:56;21.40;81.50
44047;DHT22;29713;-33.888;151.150;2023-07-20T02:51:24;21.40;81.10
44047;DHT22;29713;-33.888;151.150;2023-07-20T02:53:51;21.00;81.90
44047;DHT22;29713;-33.888;151.150;2023-07-20T02:56:18;21.10;81.00
44047;DHT22;29713;-33.888;151.150;2023-07-20T02:58:46;21.30;81.00
44047;DHT22;29713;-33.888;151.150;2023-07-20T03:01:13;21.60;81.40
44047;DHT22;29713;-33.888;151.150;2023-07-20T03:03:42;22.00;80.10
44047;DHT22;29713;-33.888;151.150;2023-07-20T03:06:16;22.10;80.80
44047;DHT22;29713;-33.888;151.150;2023-07-20T03:08:44;22.40;79.10
44047;DHT22;29713;-33.888;151.150;2023-07-20T03:11:17;22.50;77.60
44047;DHT22;29713;-33.888;151.150;2023-07-20T03:13:45;22.40;77.30
44047;DHT22;29713;-33.888;151.150;2023-07-20T03:16:13;22.10;77.10
44047;DHT22;29713;-33.888;151.150;2023-07-20T03:18:42;22.20;78.40
44047;DHT22;29713;-33.888;151.150;2023-07-20T03:21:11;22.60;78.50
44047;DHT22;29713;-33.888;151.150;2023-07-20T03:23:39;23.00;77.00
44047;DHT22;29713;-33.888;151.150;2023-07-20T03:26:06;23.30;75.30
44047;DHT22;29713;-33.888;151.150;2023-07-20T03:28:37;23.30;72.90
44047;DHT22;29713;-33.888;151.150;2023-07-20T03:31:05;23.10;73.50
44047;DHT22;29713;-33.888;151.150;2023-07-20T03:33:33;23.20;71.90
44047;DHT22;29713;-33.888;151.150;2023-07-20T03:36:01;23.10;71.80
44047;DHT22;29713;-33.888;151.150;2023-07-20T03:38:28;23.10;72.20
44047;DHT22;29713;-33.888;151.150;2023-07-20T03:40:58;23.20;71.30
44047;DHT22;29713;-33.888;151.150;2023-07-20T03:43:27;22.90;72.10
44047;DHT22;29713;-33.888;151.150;2023-07-20T03:45:57;23.00;71.40
44047;DHT22;29713;-33.888;151.150;2023-07-20T03:48:25;23.10;71.10
44047;DHT22;29713;-33.888;151.150;2023-07-20T03:50:53;23.20;71.90
44047;DHT22;29713;-33.888;151.150;2023-07-20T03:53:21;23.30;71.60
44047;DHT22;29713;-33.888;151.150;2023-07-20T03:55:49;23.40;72.60
44047;DHT22;29713;-33.888;151.150;2023-07-20T03:58:17;23.50;72.80
44047;DHT22;29713;-33.888;151.150;2023-07-20T04:00:49;23.50;72.20
44047;DHT22;29713;-33.888;151.150;2023-07-20T04:03:17;23.50;73.60
44047;DHT22;29713;-33.888;151.150;2023-07-20T04:05:45;23.80;73.30
44047;DHT22;29713;-33.888;151.150;2023-07-20T04:08:13;23.80;71.60
44047;DHT22;29713;-33.888;151.150;2023-07-20T04:10:43;23.40;71.10
44047;DHT22;29713;-33.888;151.150;2023-07-20T04:13:11;23.50;71.80
44047;DHT22;29713;-33.888;151.150;2023-07-20T04:15:39;23.60;72.50
44047;DHT22;29713;-33.888;151.150;2023-07-20T04:18:06;23.60;72.90
44047;DHT22;29713;-33.888;151.150;2023-07-20T04:20:34;23.70;69.90
44047;DHT22;29713;-33.888;151.150;2023-07-20T04:23:01;23.30;70.30
44047;DHT22;29713;-33.888;151.150;2023-07-20T04:25:29;23.30;71.60
44047;DHT22;29713;-33.888;151.150;2023-07-20T04:28:00;23.40;71.40
44047;DHT22;29713;-33.888;151.150;2023-07-20T04:30:27;23.30;71.20
44047;DHT22;29713;-33.888;151.150;2023-07-20T04:32:54;23.20;71.20
44047;DHT22;29713;-33.888;151.150;2023-07-20T04:35:52;23.20;71.10
44047;DHT22;29713;-33.888;151.150;2023-07-20T04:38:20;23.00;70.40
44047;DHT22;29713;-33.888;151.150;2023-07-20T04:40:49;22.80;71.20
44047;DHT22;29713;-33.888;151.150;2023-07-20T04:43:17;22.60;71.60
44047;DHT22;29713;-33.888;151.150;2023-07-20T04:45:45;22.60;72.30
44047;DHT22;29713;-33.888;151.150;2023-07-20T04:48:14;22.60;72.50
44047;DHT22;29713;-33.888;151.150;2023-07-20T04:50:44;22.20;71.20
44047;DHT22;29713;-33.888;151.150;2023-07-20T04:53:12;22.00;73.50
44047;DHT22;29713;-33.888;151.150;2023-07-20T04:55:40;21.70;73.80
44047;DHT22;29713;-33.888;151.150;2023-07-20T04:58:08;21.60;74.50
44047;DHT22;29713;-33.888;151.150;2023-07-20T05:00:37;21.30;75.10
44047;DHT22;29713;-33.888;151.150;2023-07-20T05:03:05;21.00;75.80
44047;DHT22;29713;-33.888;151.150;2023-07-20T05:05:32;20.70;75.80
44047;DHT22;29713;-33.888;151.150;2023-07-20T05:07:59;20.40;76.50
44047;DHT22;29713;-33.888;151.150;2023-07-20T05:10:27;20.00;75.40
44047;DHT22;29713;-33.888;151.150;2023-07-20T05:12:54;19.80;76.30
44047;DHT22;29713;-33.888;151.150;2023-07-20T05:15:21;19.50;76.00
44047;DHT22;29713;-33.888;151.150;2023-07-20T05:17:49;19.40;77.20
44047;DHT22;29713;-33.888;151.150;2023-07-20T05:20:16;19.20;77.30
44047;DHT22;29713;-33.888;151.150;2023-07-20T05:22:44;19.20;78.90
44047;DHT22;29713;-33.888;151.150;2023-07-20T05:25:11;19.10;78.70
44047;DHT22;29713;-33.888;151.150;2023-07-20T05:27:39;19.00;79.50
44047;DHT22;29713;-33.888;151.150;2023-07-20T05:30:07;18.90;80.00
44047;DHT22;29713;-33.888;151.150;2023-07-20T05:32:35;18.90;79.70
44047;DHT22;29713;-33.888;151.150;2023-07-20T05:35:02;18.80;80.50
44047;DHT22;29713;-33.888;151.150;2023-07-20T05:37:30;18.80;81.70
44047;DHT22;29713;-33.888;151.150;2023-07-20T05:39:58;18.80;81.60
44047;DHT22;29713;-33.888;151.150;2023-07-20T05:42:28;18.80;81.80
44047;DHT22;29713;-33.888;151.150;2023-07-20T05:44:55;18.90;82.20
44047;DHT22;29713;-33.888;151.150;2023-07-20T05:47:23;18.80;81.70
44047;DHT22;29713;-33.888;151.150;2023-07-20T05:49:50;18.80;81.40
44047;DHT22;29713;-33.888;151.150;2023-07-20T05:52:18;18.80;81.40
44047;DHT22;29713;-33.888;151.150;2023-07-20T05:54:45;18.80;82.10
44047;DHT22;29713;-33.888;151.150;2023-07-20T05:57:12;18.70;82.20
44047;DHT22;29713;-33.888;151.150;2023-07-20T05:59:40;18.70;83.40
44047;DHT22;29713;-33.888;151.150;2023-07-20T06:02:11;18.70;83.50
44047;DHT22;29713;-33.888;151.150;2023-07-20T06:04:39;18.70;82.60
44047;DHT22;29713;-33.888;151.150;2023-07-20T06:07:06;18.60;82.60
44047;DHT22;29713;-33.888;151.150;2023-07-20T06:09:37;18.60;83.30
44047;DHT22;29713;-33.888;151.150;2023-07-20T06:12:04;18.60;83.90
44047;DHT22;29713;-33.888;151.150;2023-07-20T06:14:32;18.60;83.20
44047;DHT22;29713;-33.888;151.150;2023-07-20T06:17:02;18.60;83.20
44047;DHT22;29713;-33.888;151.150;2023-07-20T06:19:30;18.60;83.20
44047;DHT22;29713;-33.888;151.150;2023-07-20T06:21:57;18.70;82.30
44047;DHT22;29713;-33.888;151.150;2023-07-20T06:24:24;18.70;82.90
44047;DHT22;29713;-33.888;151.150;2023-07-20T06:26:52;18.60;84.10
44047;DHT22;29713;-33.888;151.150;2023-07-20T06:29:19;18.60;85.00
44047;DHT22;29713;-33.888;151.150;2023-07-20T06:31:46;18.50;85.80
44047;DHT22;29713;-33.888;151.150;2023-07-20T06:34:13;18.50;86.80
44047;DHT22;29713;-33.888;151.150;2023-07-20T06:36:41;18.40;87.00
44047;DHT22;29713;-33.888;151.150;2023-07-20T06:39:08;18.30;88.00
44047;DHT22;29713;-33.888;151.150;2023-07-20T06:41:35;18.20;88.30
44047;DHT22;29713;-33.888;151.150;2023-07-20T06:44:03;18.20;88.70
44047;DHT22;29713;-33.888;151.150;2023-07-20T06:46:31;18.10;89.10
44047;DHT22;29713;-33.888;151.150;2023-07-20T06:48:58;18.00;89.50
44047;DHT22;29713;-33.888;151.150;2023-07-20T06:51:26;17.90;90.30
44047;DHT22;29713;-33.888;151.150;2023-07-20T06:53:53;17.80;90.70
44047;DHT22;29713;-33.888;151.150;2023-07-20T06:56:21;17.80;91.80
44047;DHT22;29713;-33.888;151.150;2023-07-20T06:58:48;17.70;92.50
44047;DHT22;29713;-33.888;151.150;2023-07-20T07:01:15;17.60;92.40
44047;DHT22;29713;-33.888;151.150;2023-07-20T07:03:43;17.50;92.70
44047;DHT22;29713;-33.888;151.150;2023-07-20T07:06:10;17.50;94.00
44047;DHT22;29713;-33.888;151.150;2023-07-20T07:08:41;17.40;95.70
44047;DHT22;29713;-33.888;151.150;2023-07-20T07:11:11;17.30;97.00
44047;DHT22;29713;-33.888;151.150;2023-07-20T07:13:39;17.20;98.10
44047;DHT22;29713;-33.888;151.150;2023-07-20T07:16:06;17.10;98.90
44047;DHT22;29713;-33.888;151.150;2023-07-20T07:18:33;17.00;99.80
44047;DHT22;29713;-33.888;151.150;2023-07-20T07:21:01;17.00;99.90
44047;DHT22;29713;-33.888;151.150;2023-07-20T07:23:28;16.90;99.90
44047;DHT22;29713;-33.888;151.150;2023-07-20T07:25:56;16.80;99.90
44047;DHT22;29713;-33.888;151.150;2023-07-20T07:28:23;16.70;99.90
44047;DHT22;29713;-33.888;151.150;2023-07-20T07:30:50;16.70;99.90
44047;DHT22;29713;-33.888;151.150;2023-07-20T07:33:18;16.60;99.90
44047;DHT22;29713;-33.888;151.150;2023-07-20T07:35:45;16.50;99.90
44047;DHT22;29713;-33.888;151.150;2023-07-20T07:38:13;16.40;99.90
44047;DHT22;29713;-33.888;151.150;2023-07-20T07:40:40;16.30;99.90
44047;DHT22;29713;-33.888;151.150;2023-07-20T07:43:08;16.20;99.90
44047;DHT22;29713;-33.888;151.150;2023-07-20T07:45:36;16.20;99.90
44047;DHT22;29713;-33.888;151.150;2023-07-20T07:48:05;16.10;99.90
44047;DHT22;29713;-33.888;151.150;2023-07-20T07:50:33;16.00;99.90
44047;DHT22;29713;-33.888;151.150;2023-07-20T07:53:00;15.90;99.90
44047;DHT22;29713;-33.888;151.150;2023-07-20T07:55:28;15.80;99.90
44047;DHT22;29713;-33.888;151.150;2023-07-20T07:57:55;15.70;99.90
44047;DHT22;29713;-33.888;151.150;2023-07-20T08:00:22;15.60;99.90
44047;DHT22;29713;-33.888;151.150;2023-07-20T08:02:51;15.50;99.90
44047;DHT22;29713;-33.888;151.150;2023-07-20T08:05:18;15.40;99.90
44047;DHT22;29713;-33.888;151.150;2023-07-20T08:07:46;15.30;99.90
44047;DHT22;29713;-33.888;151.150;2023-07-20T08:10:13;15.30;99.90
44047;DHT22;29713;-33.888;151.150;2023-07-20T08:12:40;15.20;99.90
44047;DHT22;29713;-33.888;151.150;2023-07-20T08:15:10;15.20;99.90
44047;DHT22;29713;-33.888;151.150;2023-07-20T08:17:37;15.10;99.90
44047;DHT22;29713;-33.888;151.150;2023-07-20T08:20:05;15.10;99.90
44047;DHT22;29713;-33.888;151.150;2023-07-20T08:22:33;15.10;99.90
44047;DHT22;29713;-33.888;151.150;2023-07-20T08:25:00;15.00;99.90
44047;DHT22;29713;-33.888;151.150;2023-07-20T08:27:27;15.00;99.90
44047;DHT22;29713;-33.888;151.150;2023-07-20T08:29:55;14.90;99.90
44047;DHT22;29713;-33.888;151.150;2023-07-20T08:32:23;14.90;99.90
44047;DHT22;29713;-33.888;151.150;2023-07-20T08:34:50;14.90;99.90
44047;DHT22;29713;-33.888;151.150;2023-07-20T08:37:17;14.80;99.90
44047;DHT22;29713;-33.888;151.150;2023-07-20T08:39:45;14.70;99.90
44047;DHT22;29713;-33.888;151.150;2023-07-20T08:42:14;14.60;99.90
44047;DHT22;29713;-33.888;151.150;2023-07-20T08:44:43;14.60;99.90
44047;DHT22;29713;-33.888;151.150;2023-07-20T08:47:12;14.50;99.90
44047;DHT22;29713;-33.888;151.150;2023-07-20T08:49:41;14.50;99.90
44047;DHT22;29713;-33.888;151.150;2023-07-20T08:52:09;14.40;99.90
44047;DHT22;29713;-33.888;151.150;2023-07-20T08:54:37;14.30;99.90
44047;DHT22;29713;-33.888;151.150;2023-07-20T08:57:05;14.20;99.90
44047;DHT22;29713;-33.888;151.150;2023-07-20T08:59:36;14.20;99.90
44047;DHT22;29713;-33.888;151.150;2023-07-20T09:02:06;14.10;99.90
44047;DHT22;29713;-33.888;151.150;2023-07-20T09:04:34;14.00;99.90
44047;DHT22;29713;-33.888;151.150;2023-07-20T09:07:02;14.00;99.90
44047;DHT22;29713;-33.888;151.150;2023-07-20T09:09:29;13.90;99.90
44047;DHT22;29713;-33.888;151.150;2023-07-20T09:11:57;13.90;99.90
44047;DHT22;29713;-33.888;151.150;2023-07-20T09:14:24;13.80;99.90
44047;DHT22;29713;-33.888;151.150;2023-07-20T09:16:54;13.80;99.90
44047;DHT22;29713;-33.888;151.150;2023-07-20T09:19:22;13.80;99.90
44047;DHT22;29713;-33.888;151.150;2023-07-20T09:21:50;13.70;99.90
44047;DHT22;29713;-33.888;151.150;2023-07-20T09:24:19;13.60;99.90
44047;DHT22;29713;-33.888;151.150;2023-07-20T09:26:48;13.40;99.90
44047;DHT22;29713;-33.888;151.150;2023-07-20T09:29:20;13.40;99.90
44047;DHT22;29713;-33.888;151.150;2023-07-20T09:34:32;13.30;99.90
44047;DHT22;29713;-33.888;151.150;2023-07-20T09:37:00;13.20;99.90
44047;DHT22;29713;-33.888;151.150;2023-07-20T09:39:27;13.20;99.90
44047;DHT22;29713;-33.888;151.150;2023-07-20T09:42:00;13.20;99.90
44047;DHT22;29713;-33.888;151.150;2023-07-20T09:44:29;13.10;99.90
44047;DHT22;29713;-33.888;151.150;2023-07-20T09:46:56;13.10;99.90
44047;DHT22;29713;-33.888;151.150;2023-07-20T09:49:23;13.10;99.90
44047;DHT22;29713;-33.888;151.150;2023-07-20T09:51:51;13.00;99.90
44047;DHT22;29713;-33.888;151.150;2023-07-20T09:54:22;12.90;99.90
44047;DHT22;29713;-33.888;151.150;2023-07-20T09:56:51;12.90;99.90
44047;DHT22;29713;-33.888;151.150;2023-07-20T09:59:19;12.80;99.90
44047;DHT22;29713;-33.888;151.150;2023-07-20T10:01:46;12.70;99.90
44047;DHT22;29713;-33.888;151.150;2023-07-20T10:04:15;12.70;99.90
44047;DHT22;29713;-33.888;151.150;2023-07-20T10:06:44;12.60;99.90
44047;DHT22;29713;-33.888;151.150;2023-07-20T10:09:15;12.60;99.90
44047;DHT22;29713;-33.888;151.150;2023-07-20T10:11:49;12.50;99.90
44047;DHT22;29713;-33.888;151.150;2023-07-20T10:14:20;12.40;99.90
44047;DHT22;29713;-33.888;151.150;2023-07-20T10:16:51;12.30;99.90
44047;DHT22;29713;-33.888;151.150;2023-07-20T10:19:39;12.30;99.90
44047;DHT22;29713;-33.888;151.150;2023-07-20T10:22:27;12.30;99.90
44047;DHT22;29713;-33.888;151.150;2023-07-20T10:24:54;12.30;99.90
44047;DHT22;29713;-33.888;151.150;2023-07-20T10:27:25;12.30;99.90
44047;DHT22;29713;-33.888;151.150;2023-07-20T10:29:53;12.20;99.90
44047;DHT22;29713;-33.888;151.150;2023-07-20T10:32:24;12.20;99.90
44047;DHT22;29713;-33.888;151.150;2023-07-20T10:34:52;12.10;99.90
44047;DHT22;29713;-33.888;151.150;2023-07-20T10:37:51;12.10;99.90
44047;DHT22;29713;-33.888;151.150;2023-07-20T10:40:26;12.10;99.90
44047;DHT22;29713;-33.888;151.150;2023-07-20T10:43:11;12.10;99.90
44047;DHT22;29713;-33.888;151.150;2023-07-20T10:45:52;12.00;99.90
44047;DHT22;29713;-33.888;151.150;2023-07-20T10:48:20;12.00;99.90
44047;DHT22;29713;-33.888;151.150;2023-07-20T10:51:11;12.10;99.90
44047;DHT22;29713;-33.888;151.150;2023-07-20T10:53:43;12.00;99.90
44047;DHT22;29713;-33.888;151.150;2023-07-20T10:56:15;12.00;99.90
44047;DHT22;29713;-33.888;151.150;2023-07-20T10:58:45;12.10;99.90
44047;DHT22;29713;-33.888;151.150;2023-07-20T11:01:18;12.20;99.90
44047;DHT22;29713;-33.888;151.150;2023-07-20T11:03:50;12.20;99.90
44047;DHT22;29713;-33.888;151.150;2023-07-20T11:09:13;12.30;99.90
44047;DHT22;29713;-33.888;151.150;2023-07-20T11:11:43;12.40;99.90
44047;DHT22;29713;-33.888;151.150;2023-07-20T11:14:24;12.40;99.90
44047;DHT22;29713;-33.888;151.150;2023-07-20T11:16:52;12.40;99.90
44047;DHT22;29713;-33.888;151.150;2023-07-20T11:19:25;12.50;99.90
44047;DHT22;29713;-33.888;151.150;2023-07-20T11:21:54;12.50;99.90
44047;DHT22;29713;-33.888;151.150;2023-07-20T11:24:22;12.50;99.90
44047;DHT22;29713;-33.888;151.150;2023-07-20T11:26:53;12.40;99.90
44047;DHT22;29713;-33.888;151.150;2023-07-20T11:29:22;12.40;99.90
44047;DHT22;29713;-33.888;151.150;2023-07-20T11:31:52;12.40;99.90
44047;DHT22;29713;-33.888;151.150;2023-07-20T11:34:20;12.40;99.90
44047;DHT22;29713;-33.888;151.150;2023-07-20T11:36:49;12.30;99.90
44047;DHT22;29713;-33.888;151.150;2023-07-20T11:39:19;12.30;99.90
44047;DHT22;29713;-33.888;151.150;2023-07-20T11:41:53;12.30;99.90
44047;DHT22;29713;-33.888;151.150;2023-07-20T11:44:23;12.20;99.90
44047;DHT22;29713;-33.888;151.150;2023-07-20T11:47:11;12.20;99.90
44047;DHT22;29713;-33.888;151.150;2023-07-20T11:49:43;12.10;99.90
44047;DHT22;29713;-33.888;151.150;2023-07-20T11:52:16;12.10;99.90
44047;DHT22;29713;-33.888;151.150;2023-07-20T11:54:44;12.10;99.90
44047;DHT22;29713;-33.888;151.150;2023-07-20T11:57:20;12.00;99.90
44047;DHT22;29713;-33.888;151.150;2023-07-20T11:59:57;12.00;99.90
44047;DHT22;29713;-33.888;151.150;2023-07-20T12:02:30;11.90;99.90
44047;DHT22;29713;-33.888;151.150;2023-07-20T12:04:58;11.90;99.90
44047;DHT22;29713;-33.888;151.150;2023-07-20T12:07:26;11.80;99.90
44047;DHT22;29713;-33.888;151.150;2023-07-20T12:10:11;11.80;99.90
44047;DHT22;29713;-33.888;151.150;2023-07-20T12:12:40;11.70;99.90
44047;DHT22;29713;-33.888;151.150;2023-07-20T12:15:26;11.70;99.90
44047;DHT22;29713;-33.888;151.150;2023-07-20T12:18:00;11.70;99.90
44047;DHT22;29713;-33.888;151.150;2023-07-20T12:20:36;11.70;99.90
44047;DHT22;29713;-33.888;151.150;2023-07-20T12:23:09;11.60;99.90
44047;DHT22;29713;-33.888;151.150;2023-07-20T12:28:16;11.50;99.90
44047;DHT22;29713;-33.888;151.150;2023-07-20T12:30:45;11.40;99.90
44047;DHT22;29713;-33.888;151.150;2023-07-20T12:33:12;11.40;99.90
44047;DHT22;29713;-33.888;151.150;2023-07-20T12:35:44;11.30;99.90
44047;DHT22;29713;-33.888;151.150;2023-07-20T12:38:17;11.30;99.90
44047;DHT22;29713;-33.888;151.150;2023-07-20T12:40:44;11.30;99.90
44047;DHT22;29713;-33.888;151.150;2023-07-20T12:43:11;11.30;99.90
44047;DHT22;29713;-33.888;151.150;2023-07-20T12:45:39;11.30;99.90
44047;DHT22;29713;-33.888;151.150;2023-07-20T12:48:07;11.30;99.90
44047;DHT22;29713;-33.888;151.150;2023-07-20T12:50:34;11.30;99.90
44047;DHT22;29713;-33.888;151.150;2023-07-20T12:53:01;11.30;99.90
44047;DHT22;29713;-33.888;151.150;2023-07-20T12:55:30;11.40;99.90
44047;DHT22;29713;-33.888;151.150;2023-07-20T12:57:57;11.40;99.90
44047;DHT22;29713;-33.888;151.150;2023-07-20T13:00:28;11.40;99.90
44047;DHT22;29713;-33.888;151.150;2023-07-20T13:02:55;11.40;99.90
44047;DHT22;29713;-33.888;151.150;2023-07-20T13:05:23;11.30;99.90
44047;DHT22;29713;-33.888;151.150;2023-07-20T13:07:50;11.30;99.90
44047;DHT22;29713;-33.888;151.150;2023-07-20T13:10:18;11.30;99.90
44047;DHT22;29713;-33.888;151.150;2023-07-20T13:12:45;11.30;99.90
44047;DHT22;29713;-33.888;151.150;2023-07-20T13:15:12;11.30;99.90
44047;DHT22;29713;-33.888;151.150;2023-07-20T13:17:40;11.40;99.90
44047;DHT22;29713;-33.888;151.150;2023-07-20T13:20:09;11.40;99.90
44047;DHT22;29713;-33.888;151.150;2023-07-20T13:22:38;11.40;99.90
44047;DHT22;29713;-33.888;151.150;2023-07-20T13:25:06;11.40;99.90
44047;DHT22;29713;-33.888;151.150;2023-07-20T13:27:35;11.30;99.90
44047;DHT22;29713;-33.888;151.150;2023-07-20T13:30:03;11.20;99.90
44047;DHT22;29713;-33.888;151.150;2023-07-20T13:32:36;11.10;99.90
44047;DHT22;29713;-33.888;151.150;2023-07-20T13:35:04;11.10;99.90
44047;DHT22;29713;-33.888;151.150;2023-07-20T13:37:31;11.10;99.90
44047;DHT22;29713;-33.888;151.150;2023-07-20T13:39:59;11.00;99.90
44047;DHT22;29713;-33.888;151.150;2023-07-20T13:42:27;11.10;99.90
44047;DHT22;29713;-33.888;151.150;2023-07-20T13:44:54;11.10;99.90
44047;DHT22;29713;-33.888;151.150;2023-07-20T13:47:21;11.10;99.90
44047;DHT22;29713;-33.888;151.150;2023-07-20T13:49:49;11.10;99.90
44047;DHT22;29713;-33.888;151.150;2023-07-20T13:52:16;11.20;99.90
44047;DHT22;29713;-33.888;151.150;2023-07-20T13:54:43;11.20;99.90
44047;DHT22;29713;-33.888;151.150;2023-07-20T13:57:11;11.20;99.90
44047;DHT22;29713;-33.888;151.150;2023-07-20T13:59:38;11.20;99.90
44047;DHT22;29713;-33.888;151.150;2023-07-20T14:02:06;11.20;99.90
44047;DHT22;29713;-33.888;151.150;2023-07-20T14:04:33;11.20;99.90
44047;DHT22;29713;-33.888;151.150;2023-07-20T14:07:00;11.20;99.90
44047;DHT22;29713;-33.888;151.150;2023-07-20T14:09:28;11.10;99.90
44047;DHT22;29713;-33.888;151.150;2023-07-20T14:11:55;11.10;99.90
44047;DHT22;29713;-33.888;151.150;2023-07-20T14:14:22;11.10;99.90
44047;DHT22;29713;-33.888;151.150;2023-07-20T14:16:49;11.00;99.90
44047;DHT22;29713;-33.888;151.150;2023-07-20T14:19:17;11.00;99.90
44047;DHT22;29713;-33.888;151.150;2023-07-20T14:21:44;11.00;99.90
44047;DHT22;29713;-33.888;151.150;2023-07-20T14:24:12;11.10;99.90
44047;DHT22;29713;-33.888;151.150;2023-07-20T14:26:39;11.10;99.90
44047;DHT22;29713;-33.888;151.150;2023-07-20T14:29:06;11.00;99.90
44047;DHT22;29713;-33.888;151.150;2023-07-20T14:31:34;11.10;99.90
44047;DHT22;29713;-33.888;151.150;2023-07-20T14:34:01;11.10;99.90
44047;DHT22;29713;-33.888;151.150;2023-07-20T14:36:28;11.00;99.90
44047;DHT22;29713;-33.888;151.150;2023-07-20T14:38:55;11.00;99.90
44047;DHT22;29713;-33.888;151.150;2023-07-20T14:41:23;11.00;99.90
44047;DHT22;29713;-33.888;151.150;2023-07-20T14:43:50;11.00;99.90
44047;DHT22;29713;-33.888;151.150;2023-07-20T14:46:17;11.00;99.90
44047;DHT22;29713;-33.888;151.150;2023-07-20T14:48:45;11.00;99.90
44047;DHT22;29713;-33.888;151.150;2023-07-20T14:51:12;11.00;99.90
44047;DHT22;29713;-33.888;151.150;2023-07-20T14:53:39;11.00;99.90
44047;DHT22;29713;-33.888;151.150;2023-07-20T14:56:07;11.00;99.90
44047;DHT22;29713;-33.888;151.150;2023-07-20T14:58:34;11.00;99.90
44047;DHT22;29713;-33.888;151.150;2023-07-20T15:01:02;10.90;99.90
44047;DHT22;29713;-33.888;151.150;2023-07-20T15:03:29;10.80;99.90
44047;DHT22;29713;-33.888;151.150;2023-07-20T15:06:02;10.70;99.90
44047;DHT22;29713;-33.888;151.150;2023-07-20T15:08:30;10.70;99.90
44047;DHT22;29713;-33.888;151.150;2023-07-20T15:10:58;10.60;99.90
44047;DHT22;29713;-33.888;151.150;2023-07-20T15:13:25;10.60;99.90
44047;DHT22;29713;-33.888;151.150;2023-07-20T15:15:52;10.50;99.90
44047;DHT22;29713;-33.888;151.150;2023-07-20T15:18:20;10.50;99.90
44047;DHT22;29713;-33.888;151.150;2023-07-20T15:20:47;10.60;99.90